createdAt,value
2022-09-11T00:01:15.999Z,25.32
2022-09-11T00:03:45.727Z,26.69
2022-09-11T00:06:27.420Z,26.19
2022-09-11T00:09:00.650Z,25.60
2022-09-11T00:11:30.626Z,24.41
2022-09-11T00:13:58.284Z,27.80
2022-09-11T00:16:31.017Z,25.47
2022-09-11T00:18:59.807Z,24.81
2022-09-11T00:21:27.379Z,24.20
2022-09-11T00:23:54.138Z,27.27
2022-09-11T00:26:22.034Z,24.63
2022-09-11T00:28:50.703Z,27.01
2022-09-11T00:31:20.225Z,25.24
2022-09-11T00:33:47.163Z,26.12
2022-09-11T00:36:17.237Z,24.83
2022-09-11T00:38:45.774Z,25.54
2022-09-11T00:41:38.277Z,24.69
2022-09-11T00:44:09.045Z,25.54
2022-09-11T00:46:44.739Z,27.08
2022-09-11T00:49:32.626Z,27.10
2022-09-11T00:52:17.879Z,28.67
2022-09-11T00:54:46.919Z,26.60
2022-09-11T00:57:13.886Z,26.13
2022-09-11T00:59:44.038Z,24.87
2022-09-11T01:02:15.268Z,26.27
2022-09-11T01:04:42.019Z,25.79
2022-09-11T01:07:11.019Z,26.85
2022-09-11T01:09:37.898Z,25.94
2022-09-11T01:12:18.591Z,26.80
2022-09-11T01:15:01.310Z,26.64
2022-09-11T01:17:34.022Z,24.50
2022-09-11T01:20:19.319Z,27.56
2022-09-11T01:23:08.059Z,27.49
2022-09-11T01:26:02.750Z,28.12
2022-09-11T01:28:44.217Z,30.67
2022-09-11T01:31:17.123Z,29.17
2022-09-11T01:33:50.986Z,28.12
2022-09-11T01:36:22.373Z,26.87
2022-09-11T01:38:59.172Z,27.20
2022-09-11T01:41:36.927Z,27.38
2022-09-11T01:44:10.510Z,29.56
2022-09-11T01:46:46.180Z,27.16
2022-09-11T01:49:33.917Z,28.41
2022-09-11T01:52:03.432Z,25.81
2022-09-11T01:54:42.314Z,26.77
2022-09-11T01:57:25.564Z,26.32
2022-09-11T01:59:58.957Z,28.98
2022-09-11T02:02:33.344Z,29.54
2022-09-11T02:05:09.384Z,26.52
2022-09-11T02:07:45.789Z,27.04
2022-09-11T02:10:20.133Z,26.36
2022-09-11T02:12:53.499Z,27.60
2022-09-11T02:15:23.298Z,27.75
2022-09-11T02:18:20.098Z,27.52
2022-09-11T02:20:47.675Z,27.11
2022-09-11T02:23:17.731Z,27.60
2022-09-11T02:25:44.619Z,24.74
2022-09-11T02:28:12.161Z,27.67
2022-09-11T02:30:42.933Z,27.48
2022-09-11T02:33:29.347Z,27.59
2022-09-11T02:36:19.372Z,27.54
2022-09-11T02:38:59.564Z,27.06
2022-09-11T02:41:46.521Z,26.41
2022-09-11T02:44:38.020Z,27.38
2022-09-11T02:47:15.055Z,29.22
2022-09-11T02:49:51.542Z,26.59
2022-09-11T02:52:54.622Z,26.49
2022-09-11T02:55:33.223Z,25.36
2022-09-11T02:58:15.789Z,28.95
2022-09-11T03:00:44.417Z,25.44
2022-09-11T03:03:11.353Z,27.65
2022-09-11T03:05:40.296Z,26.42
2022-09-11T03:08:07.770Z,26.92
2022-09-11T03:10:34.781Z,28.54
2022-09-11T03:13:01.643Z,26.87
2022-09-11T03:15:31.741Z,27.08
2022-09-11T03:17:58.546Z,28.58
2022-09-11T03:20:25.343Z,28.41
2022-09-11T03:22:52.081Z,28.48
2022-09-11T03:25:18.802Z,30.34
2022-09-11T03:27:47.287Z,30.19
2022-09-11T03:30:14.264Z,28.63
2022-09-11T03:32:41.094Z,28.33
2022-09-11T03:35:08.200Z,28.77
2022-09-11T03:37:37.339Z,30.82
2022-09-11T03:40:04.931Z,29.95
2022-09-11T03:42:33.422Z,30.25
2022-09-11T03:45:00.505Z,27.84
2022-09-11T03:47:27.444Z,31.29
2022-09-11T03:49:56.070Z,27.04
2022-09-11T03:52:23.139Z,28.84
2022-09-11T03:54:50.393Z,28.33
2022-09-11T03:57:17.251Z,27.26
2022-09-11T03:59:44.008Z,28.80
2022-09-11T04:02:10.768Z,27.11
2022-09-11T04:04:37.509Z,28.46
2022-09-11T04:07:05.107Z,29.07
2022-09-11T04:09:32.572Z,27.08
2022-09-11T04:11:59.383Z,28.65
2022-09-11T04:14:28.787Z,27.65
2022-09-11T04:16:57.933Z,28.82
2022-09-11T04:19:25.673Z,28.52
2022-09-11T04:21:53.477Z,28.43
2022-09-11T04:24:21.287Z,29.76
2022-09-11T04:26:48.149Z,28.19
2022-09-11T04:29:22.589Z,29.78
2022-09-11T04:31:51.335Z,28.67
2022-09-11T04:34:18.442Z,28.57
2022-09-11T04:36:45.246Z,29.24
2022-09-11T04:39:15.674Z,27.68
2022-09-11T04:41:44.459Z,27.79
2022-09-11T04:44:11.307Z,29.72
2022-09-11T04:46:42.965Z,29.26
2022-09-11T04:49:11.542Z,26.79
2022-09-11T04:51:42.228Z,28.31
2022-09-11T04:54:18.009Z,31.36
2022-09-11T04:56:45.659Z,26.35
2022-09-11T04:59:16.386Z,27.51
2022-09-11T05:01:52.223Z,28.52
2022-09-11T05:04:22.902Z,26.67
2022-09-11T05:06:52.262Z,27.51
2022-09-11T05:09:20.054Z,30.53
2022-09-11T05:11:48.210Z,28.31
2022-09-11T05:14:16.140Z,26.83
2022-09-11T05:16:46.110Z,27.32
2022-09-11T05:19:15.597Z,29.25
2022-09-11T05:21:44.493Z,26.49
2022-09-11T05:24:11.623Z,29.54
2022-09-11T05:26:40.654Z,28.02
2022-09-11T05:29:14.040Z,27.59
2022-09-11T05:31:48.477Z,26.63
2022-09-11T05:34:18.630Z,32.50
2022-09-11T05:36:45.932Z,27.80
2022-09-11T05:39:12.822Z,27.73
2022-09-11T05:41:40.202Z,30.01
2022-09-11T05:44:07.490Z,31.58
2022-09-11T05:46:36.710Z,27.11
2022-09-11T05:49:03.832Z,28.71
2022-09-11T05:51:30.698Z,26.27
2022-09-11T05:53:58.889Z,27.27
2022-09-11T05:56:28.298Z,27.33
2022-09-11T05:58:59.402Z,28.70
2022-09-11T06:01:34.436Z,27.12
2022-09-11T06:04:11.390Z,26.68
2022-09-11T06:06:40.101Z,26.09
2022-09-11T06:09:07.682Z,28.41
2022-09-11T06:11:35.079Z,26.42
2022-09-11T06:14:02.635Z,30.17
2022-09-11T06:16:31.535Z,28.79
2022-09-11T06:19:05.775Z,26.52
2022-09-11T06:21:32.555Z,25.75
2022-09-11T06:24:06.122Z,28.39
2022-09-11T06:26:35.475Z,27.62
2022-09-11T06:29:03.108Z,25.68
2022-09-11T06:31:30.915Z,27.33
2022-09-11T06:33:58.235Z,27.63
2022-09-11T06:36:35.403Z,30.09
2022-09-11T06:39:06.930Z,28.98
2022-09-11T06:41:35.125Z,27.41
2022-09-11T06:44:07.220Z,28.37
2022-09-11T06:46:35.413Z,29.05
2022-09-11T06:49:02.793Z,29.32
2022-09-11T06:51:30.450Z,27.20
2022-09-11T06:54:02.383Z,28.55
2022-09-11T06:56:33.333Z,27.19
2022-09-11T06:59:01.116Z,27.54
2022-09-11T07:01:29.461Z,29.79
2022-09-11T07:04:02.684Z,27.19
2022-09-11T07:06:32.062Z,30.00
2022-09-11T07:09:02.626Z,28.28
2022-09-11T07:11:51.748Z,27.66
2022-09-11T07:14:23.380Z,27.43
2022-09-11T07:16:55.907Z,28.95
2022-09-11T07:19:25.540Z,27.80
2022-09-11T07:21:52.228Z,28.90
2022-09-11T07:24:20.773Z,27.64
2022-09-11T07:26:48.693Z,29.57
2022-09-11T07:29:22.347Z,27.89
2022-09-11T07:31:50.250Z,28.79
2022-09-11T07:34:16.981Z,27.82
2022-09-11T07:36:44.691Z,28.75
2022-09-11T07:39:12.494Z,26.61
2022-09-11T07:42:01.964Z,30.08
2022-09-11T07:44:32.519Z,28.88
2022-09-11T07:47:00.780Z,27.77
2022-09-11T07:49:28.307Z,27.69
2022-09-11T07:51:55.466Z,29.91
2022-09-11T07:54:34.877Z,27.15
2022-09-11T07:57:03.309Z,27.05
2022-09-11T07:59:31.043Z,26.23
2022-09-11T08:01:59.542Z,28.19
2022-09-11T08:04:26.283Z,29.83
2022-09-11T08:06:53.801Z,29.36
2022-09-11T08:09:27.174Z,30.12
2022-09-11T08:11:58.574Z,28.27
2022-09-11T08:14:27.365Z,27.54
2022-09-11T08:16:57.448Z,27.67
2022-09-11T08:19:27.145Z,27.26
2022-09-11T08:21:56.288Z,27.57
2022-09-11T08:24:24.448Z,27.01
2022-09-11T08:26:57.261Z,25.05
2022-09-11T08:29:26.166Z,25.13
2022-09-11T08:31:53.817Z,28.52
2022-09-11T08:34:22.371Z,24.61
2022-09-11T08:36:50.709Z,26.46
2022-09-11T08:39:17.567Z,26.67
2022-09-11T08:42:08.969Z,28.04
2022-09-11T08:44:51.420Z,27.57
2022-09-11T08:47:46.085Z,27.07
2022-09-11T08:50:26.855Z,27.59
2022-09-11T08:52:55.439Z,25.42
2022-09-11T08:55:40.403Z,25.31
2022-09-11T08:58:12.663Z,27.23
2022-09-11T09:01:07.143Z,27.95
2022-09-11T09:03:43.585Z,25.59
2022-09-11T09:06:17.006Z,26.53
2022-09-11T09:09:00.796Z,27.43
2022-09-11T09:11:42.552Z,28.85
2022-09-11T09:14:40.157Z,27.23
2022-09-11T09:17:09.051Z,26.10
2022-09-11T09:19:47.951Z,26.66
2022-09-11T09:23:06.355Z,29.30
2022-09-11T09:25:40.118Z,27.90
2022-09-11T09:28:11.612Z,25.93
2022-09-11T09:31:03.923Z,25.79
2022-09-11T09:33:52.688Z,27.00
2022-09-11T09:36:24.965Z,25.24
2022-09-11T09:38:53.868Z,25.88
2022-09-11T09:41:43.656Z,24.98
2022-09-11T09:44:42.993Z,27.66
2022-09-11T09:47:14.544Z,26.77
2022-09-11T09:49:43.346Z,25.64
2022-09-11T09:52:25.308Z,25.24
2022-09-11T09:55:00.151Z,25.44
2022-09-11T09:57:37.253Z,26.23
2022-09-11T10:00:10.013Z,25.22
2022-09-11T10:02:53.891Z,28.39
2022-09-11T10:05:34.842Z,25.85
2022-09-11T10:08:04.717Z,26.30
2022-09-11T10:10:38.236Z,26.62
2022-09-11T10:13:20.974Z,26.71
2022-09-11T10:16:02.296Z,28.25
2022-09-11T10:18:29.275Z,24.38
2022-09-11T10:21:24.234Z,25.35
2022-09-11T10:23:57.122Z,27.33
2022-09-11T10:26:30.207Z,25.63
2022-09-11T10:29:08.211Z,24.89
2022-09-11T10:31:39.287Z,28.90
2022-09-11T10:34:07.538Z,26.76
2022-09-11T10:36:35.169Z,25.86
2022-09-11T10:39:02.539Z,25.88
2022-09-11T10:41:34.303Z,25.80
2022-09-11T10:44:11.159Z,24.68
2022-09-11T10:46:39.814Z,26.40
2022-09-11T10:49:06.514Z,25.64
2022-09-11T10:51:39.070Z,25.01
2022-09-11T10:54:34.615Z,26.97
2022-09-11T10:57:01.589Z,28.25
2022-09-11T10:59:58.390Z,26.19
2022-09-11T11:02:29.707Z,24.37
2022-09-11T11:05:00.245Z,26.03
2022-09-11T11:07:53.817Z,25.42
2022-09-11T11:10:31.177Z,25.31
2022-09-11T11:13:08.107Z,24.50
2022-09-11T11:15:41.448Z,24.84
2022-09-11T11:18:35.766Z,27.73
2022-09-11T11:21:29.969Z,29.18
2022-09-11T11:24:22.353Z,25.94
2022-09-11T11:26:49.283Z,25.07
2022-09-11T11:29:50.672Z,26.77
2022-09-11T11:32:27.985Z,25.05
2022-09-11T11:35:01.283Z,25.57
2022-09-11T11:37:39.442Z,24.85
2022-09-11T11:40:56.909Z,25.43
2022-09-11T11:43:28.986Z,26.23
2022-09-11T11:46:05.325Z,27.94
2022-09-11T11:48:39.634Z,25.55
2022-09-11T11:51:15.340Z,26.06
2022-09-11T11:53:55.476Z,24.36
2022-09-11T11:56:33.276Z,26.77
2022-09-11T11:59:12.894Z,22.35
2022-09-11T12:02:03.430Z,25.01
2022-09-11T12:04:43.862Z,25.54
2022-09-11T12:07:30.461Z,26.34
2022-09-11T12:10:00.182Z,24.67
2022-09-11T12:12:31.261Z,22.82
2022-09-11T12:15:07.727Z,24.56
2022-09-11T12:17:40.225Z,24.23
2022-09-11T12:20:10.102Z,24.77
2022-09-11T12:22:42.626Z,26.25
2022-09-11T12:25:21.626Z,25.74
2022-09-11T12:27:52.795Z,27.97
2022-09-11T12:30:20.615Z,26.75
2022-09-11T12:33:01.332Z,25.64
2022-09-11T12:35:32.990Z,24.64
2022-09-11T12:38:14.966Z,25.06
2022-09-11T12:40:59.888Z,25.22
2022-09-11T12:43:30.785Z,26.84
2022-09-11T12:45:57.778Z,26.61
2022-09-11T12:49:21.708Z,23.59
2022-09-11T12:51:55.993Z,25.92
2022-09-11T12:54:31.640Z,25.11
2022-09-11T12:57:03.027Z,23.95
2022-09-11T12:59:43.784Z,24.75
2022-09-11T13:02:51.840Z,25.22
2022-09-11T13:05:36.477Z,23.62
2022-09-11T13:08:07.629Z,27.39
2022-09-11T13:10:39.328Z,24.94
2022-09-11T13:13:35.522Z,25.76
2022-09-11T13:16:24.150Z,23.88
2022-09-11T13:18:53.817Z,24.96
2022-09-11T13:21:25.718Z,25.39
2022-09-11T13:23:53.220Z,23.60
2022-09-11T13:26:31.568Z,24.50
2022-09-11T13:29:01.351Z,25.03
2022-09-11T13:31:34.933Z,23.43
2022-09-11T13:34:06.151Z,22.05
2022-09-11T13:36:36.164Z,21.98
2022-09-11T13:39:04.396Z,23.40
2022-09-11T13:41:36.852Z,24.89
2022-09-11T13:44:11.064Z,25.49
2022-09-11T13:46:50.309Z,23.71
2022-09-11T13:49:29.229Z,22.70
2022-09-11T13:51:56.365Z,24.24
2022-09-11T13:54:38.484Z,23.81
2022-09-11T13:57:13.394Z,24.72
2022-09-11T13:59:49.340Z,23.34
2022-09-11T14:02:34.705Z,22.12
2022-09-11T14:05:13.852Z,23.74
2022-09-11T14:07:57.271Z,23.97
2022-09-11T14:10:25.638Z,23.68
2022-09-11T14:13:23.221Z,22.44
2022-09-11T14:15:55.569Z,23.74
2022-09-11T14:18:28.023Z,24.51
2022-09-11T14:20:56.409Z,23.54
2022-09-11T14:23:28.732Z,23.52
2022-09-11T14:26:16.559Z,23.48
2022-09-11T14:28:50.473Z,22.45
2022-09-11T14:31:47.024Z,25.32
2022-09-11T14:34:18.679Z,24.47
2022-09-11T14:36:56.477Z,23.15
2022-09-11T14:39:36.001Z,23.07
2022-09-11T14:42:07.161Z,21.15
2022-09-11T14:44:35.660Z,22.31
2022-09-11T14:47:02.544Z,23.36
2022-09-11T14:49:29.699Z,22.15
2022-09-11T14:51:58.858Z,23.90
2022-09-11T14:54:31.154Z,25.06
2022-09-11T14:57:01.246Z,24.05
2022-09-11T14:59:30.803Z,24.86
2022-09-11T15:01:58.717Z,21.87
2022-09-11T15:04:25.757Z,23.14
2022-09-11T15:06:55.841Z,22.43
2022-09-11T15:09:24.726Z,22.64
2022-09-11T15:11:52.444Z,22.50
2022-09-11T15:14:44.658Z,21.67
2022-09-11T15:17:11.074Z,23.81
2022-09-11T15:19:38.242Z,24.52
2022-09-11T15:22:06.992Z,25.69
2022-09-11T15:24:34.743Z,25.46
2022-09-11T15:27:01.450Z,23.75
2022-09-11T15:29:31.594Z,26.53
2022-09-11T15:31:59.836Z,26.09
2022-09-11T15:34:27.274Z,26.08
2022-09-11T15:36:54.169Z,24.15
2022-09-11T15:39:21.519Z,22.09
2022-09-11T15:41:48.230Z,24.56
2022-09-11T15:44:23.370Z,24.62
2022-09-11T15:46:52.381Z,26.33
2022-09-11T15:49:21.741Z,26.26
2022-09-11T15:51:49.519Z,23.73
2022-09-11T15:54:16.797Z,23.82
2022-09-11T15:56:43.817Z,24.74
2022-09-11T15:59:12.156Z,22.49
2022-09-11T16:01:39.484Z,25.56
2022-09-11T16:04:12.507Z,24.14
2022-09-11T16:06:43.114Z,22.39
2022-09-11T16:09:14.286Z,22.80
2022-09-11T16:11:41.452Z,22.53
2022-09-11T16:14:15.488Z,23.24
2022-09-11T16:16:42.243Z,22.64
2022-09-11T16:19:09.232Z,22.41
2022-09-11T16:21:35.971Z,22.13
2022-09-11T16:24:04.763Z,23.32
2022-09-11T16:26:31.723Z,22.88
2022-09-11T16:28:58.638Z,22.69
2022-09-11T16:31:25.641Z,24.50
2022-09-11T16:33:55.197Z,24.77
2022-09-11T16:36:22.599Z,23.24
2022-09-11T16:38:50.309Z,24.67
2022-09-11T16:41:21.945Z,23.72
2022-09-11T16:43:51.721Z,25.26
2022-09-11T16:46:24.289Z,23.86
2022-09-11T16:48:54.398Z,22.92
2022-09-11T16:51:23.494Z,25.12
2022-09-11T16:53:50.615Z,24.95
2022-09-11T16:56:20.173Z,24.69
2022-09-11T16:58:47.462Z,24.23
2022-09-11T17:01:17.132Z,23.79
2022-09-11T17:03:46.408Z,22.86
2022-09-11T17:06:14.623Z,22.47
2022-09-11T17:08:43.353Z,22.94
2022-09-11T17:11:14.386Z,23.15
2022-09-11T17:13:43.454Z,23.26
2022-09-11T17:16:16.416Z,23.56
2022-09-11T17:18:49.136Z,23.02
2022-09-11T17:21:16.448Z,23.10
2022-09-11T17:23:43.719Z,22.65
2022-09-11T17:26:13.490Z,23.38
2022-09-11T17:28:41.902Z,23.30
2022-09-11T17:31:11.280Z,23.01
2022-09-11T17:33:40.244Z,24.97
2022-09-11T17:36:09.993Z,22.66
2022-09-11T17:38:38.630Z,22.60
2022-09-11T17:41:07.485Z,23.27
2022-09-11T17:43:36.508Z,23.37
2022-09-11T17:46:05.701Z,23.25
2022-09-11T17:48:33.107Z,22.64
2022-09-11T17:51:07.275Z,23.97
2022-09-11T17:53:38.562Z,22.97
2022-09-11T17:56:14.626Z,23.15
2022-09-11T17:58:42.681Z,22.12
2022-09-11T18:01:13.657Z,22.21
2022-09-11T18:03:43.563Z,23.20
2022-09-11T18:06:37.236Z,22.11
2022-09-11T18:09:16.138Z,22.01
2022-09-11T18:11:45.218Z,22.64
2022-09-11T18:14:13.769Z,22.89
2022-09-11T18:16:43.697Z,22.91
2022-09-11T18:19:12.087Z,22.60
2022-09-11T18:21:38.904Z,21.75
2022-09-11T18:24:06.461Z,22.68
2022-09-11T18:26:39.868Z,22.16
2022-09-11T18:29:10.498Z,23.27
2022-09-11T18:31:43.155Z,22.85
2022-09-11T18:34:18.622Z,22.57
2022-09-11T18:36:45.442Z,22.96
2022-09-11T18:39:14.311Z,23.00
2022-09-11T18:41:41.211Z,23.05
2022-09-11T18:44:15.169Z,22.27
2022-09-11T18:46:45.963Z,23.15
2022-09-11T18:49:16.212Z,23.02
2022-09-11T18:51:43.693Z,24.19
2022-09-11T18:54:16.058Z,23.97
2022-09-11T18:56:43.429Z,23.34
2022-09-11T18:59:12.278Z,23.27
2022-09-11T19:01:40.033Z,22.42
2022-09-11T19:04:10.229Z,23.09
2022-09-11T19:06:41.267Z,22.23
2022-09-11T19:09:10.494Z,22.10
2022-09-11T19:11:37.986Z,22.02
2022-09-11T19:14:07.241Z,22.46
2022-09-11T19:16:34.966Z,22.00
2022-09-11T19:19:02.981Z,23.05
2022-09-11T19:21:30.243Z,22.71
2022-09-11T19:24:00.625Z,23.11
2022-09-11T19:26:33.361Z,22.17
2022-09-11T19:29:00.668Z,23.29
2022-09-11T19:31:29.895Z,22.04
2022-09-11T19:34:00.346Z,22.55
2022-09-11T19:36:30.032Z,21.83
2022-09-11T19:39:00.569Z,22.11
2022-09-11T19:41:30.425Z,21.79
2022-09-11T19:44:03.587Z,22.02
2022-09-11T19:46:31.896Z,22.68
2022-09-11T19:49:02.856Z,23.30
2022-09-11T19:51:31.854Z,22.87
2022-09-11T19:54:00.881Z,22.32
2022-09-11T19:56:28.857Z,23.66
2022-09-11T19:58:55.975Z,22.84
2022-09-11T20:01:24.733Z,24.99
2022-09-11T20:03:53.789Z,24.43
2022-09-11T20:06:23.277Z,24.26
2022-09-11T20:08:59.170Z,23.41
2022-09-11T20:11:38.470Z,24.11
2022-09-11T20:14:05.485Z,24.62
2022-09-11T20:16:32.702Z,22.89
2022-09-11T20:19:06.638Z,23.49
2022-09-11T20:21:35.463Z,23.75
2022-09-11T20:24:06.250Z,22.57
2022-09-11T20:26:34.304Z,25.20
2022-09-11T20:29:10.630Z,22.39
2022-09-11T20:31:46.558Z,21.46
2022-09-11T20:34:16.392Z,22.52
2022-09-11T20:36:43.284Z,23.66
2022-09-11T20:39:13.794Z,21.90
2022-09-11T20:41:40.973Z,22.01
2022-09-11T20:44:08.612Z,22.67
2022-09-11T20:46:35.645Z,22.63
2022-09-11T20:49:03.441Z,23.71
2022-09-11T20:51:30.981Z,23.74
2022-09-11T20:53:57.754Z,22.77
2022-09-11T20:56:24.769Z,23.43
2022-09-11T20:58:51.947Z,22.37
2022-09-11T21:01:21.848Z,22.97
2022-09-11T21:03:56.931Z,22.59
2022-09-11T21:06:26.671Z,22.48
2022-09-11T21:08:55.930Z,22.82
2022-09-11T21:11:25.008Z,23.02
2022-09-11T21:13:52.108Z,22.80
2022-09-11T21:16:19.936Z,22.54
2022-09-11T21:18:52.642Z,23.52
2022-09-11T21:21:20.670Z,22.74
2022-09-11T21:23:48.220Z,22.58
2022-09-11T21:26:16.862Z,23.58
2022-09-11T21:28:44.319Z,22.97
2022-09-11T21:31:11.695Z,22.99
2022-09-11T21:33:38.986Z,22.95
2022-09-11T21:36:06.251Z,23.55
2022-09-11T21:38:33.931Z,23.67
2022-09-11T21:41:03.461Z,23.30
2022-09-11T21:43:30.763Z,23.34
2022-09-11T21:45:57.492Z,24.16
2022-09-11T21:48:24.322Z,24.48
2022-09-11T21:50:51.622Z,23.54
2022-09-11T21:53:19.107Z,24.77
2022-09-11T21:55:47.140Z,23.23
2022-09-11T21:58:20.126Z,23.38
2022-09-11T22:00:48.588Z,22.83
2022-09-11T22:03:17.246Z,22.71
2022-09-11T22:05:45.926Z,22.30
2022-09-11T22:08:14.614Z,22.17
2022-09-11T22:10:42.960Z,22.77
2022-09-11T22:13:12.893Z,23.35
2022-09-11T22:15:42.258Z,23.20
2022-09-11T22:18:09.490Z,23.78
2022-09-11T22:20:40.995Z,23.42
2022-09-11T22:23:13.378Z,24.14
2022-09-11T22:25:40.882Z,23.55
2022-09-11T22:28:08.484Z,22.89
2022-09-11T22:30:35.362Z,23.14
2022-09-11T22:33:02.367Z,23.46
2022-09-11T22:35:29.224Z,23.62
2022-09-11T22:37:55.922Z,22.94
2022-09-11T22:40:22.588Z,23.58
2022-09-11T22:42:49.951Z,22.14
2022-09-11T22:45:17.197Z,23.17
2022-09-11T22:47:43.911Z,22.76
2022-09-11T22:50:10.928Z,24.67
2022-09-11T22:52:37.899Z,22.94
2022-09-11T22:55:06.380Z,23.87
2022-09-11T22:57:36.000Z,23.39
2022-09-11T23:00:05.795Z,22.71
2022-09-11T23:02:32.484Z,24.52
2022-09-11T23:05:17.728Z,22.29
2022-09-11T23:07:44.914Z,22.73
2022-09-11T23:10:11.932Z,22.90
2022-09-11T23:12:38.902Z,23.23
2022-09-11T23:15:06.714Z,22.22
2022-09-11T23:17:33.681Z,23.91
2022-09-11T23:20:00.711Z,22.73
2022-09-11T23:22:27.478Z,23.18
2022-09-11T23:24:54.198Z,22.54
2022-09-11T23:27:21.240Z,22.29
2022-09-11T23:29:47.896Z,22.66
2022-09-11T23:32:14.713Z,22.42
2022-09-11T23:34:41.413Z,22.40
2022-09-11T23:37:08.174Z,22.00
2022-09-11T23:39:35.017Z,22.26
2022-09-11T23:42:01.801Z,24.40
2022-09-11T23:44:28.509Z,23.60
2022-09-11T23:46:55.215Z,25.40
2022-09-11T23:49:21.909Z,23.96
2022-09-11T23:51:50.233Z,22.50
2022-09-11T23:54:16.910Z,23.26
2022-09-11T23:56:44.461Z,24.82
2022-09-11T23:59:11.801Z,23.38
